• Join FlightAware (Why Join?)
  • Login
  • US Flag 
12:18PM EDT


 

Airport Tracker/Info


-or-


 

Live Flight TrackerFlight Track Log ✈ N232CF ✈ 11-Jun-2013 ✈ KCRP - KPIE

Flight Track Log - Related Links

Times and Time Zones

All times are in EDT time to prevent confusion due to time zone crossing. See the N232CF flight status page for this flight to view local times or setup timezone preferences in your user account.

Time Position Orientation Groundspeed Altitude Reporting Facility
EDT Latitude Longitude Course Direction KTS MPH feet Rate Location/Type
11:26AM 27.7603 -97.4950 120° Southeast 181 208 600  Level Houston Center
11:27AM 27.7333 -97.4417 120° Southeast 232 267 3,200 2,100 Climbing Houston Center
11:28AM 27.7619 -97.4092 45° Northeast 279 321 3,800 840 Climbing Houston Center
11:28AM 27.7925 -97.4031 10° North 316 364 4,000 540 Climbing Houston Center
11:29AM 27.8422 -97.3886 14° North 294 338 4,400 1,080 Climbing Houston Center
11:29AM 27.8725 -97.3847 North 286 329 5,100 2,580 Climbing Houston Center
11:30AM 27.9219 -97.3703 14° North 289 333 7,100 2,820 Climbing Houston Center
11:31AM 27.9997 -97.3311 24° Northeast 291 335 10,200 2,400 Climbing Houston Center
11:32AM 28.0783 -97.2756 32° Northeast 324 373 12,100 2,220 Climbing Houston Center
11:33AM 28.1597 -97.2106 35° Northeast 355 409 14,800 2,460 Climbing Houston Center
11:34AM 28.2317 -97.1278 45° Northeast 368 423 17,200 2,280 Climbing Houston Center
11:35AM 28.2944 -97.0028 60° Northeast 382 440 19,600 2,040 Climbing Houston Center
11:36AM 28.3472 -96.8972 60° Northeast 386 444 21,500 1,560 Climbing Houston Center
11:37AM 28.4044 -96.7889 59° Northeast 397 457 22,900 1,080 Climbing Houston Center
11:38AM 28.4636 -96.6708 60° Northeast 422 486 23,800 1,200 Climbing Houston Center
11:39AM 28.5225 -96.5542 60° Northeast 429 494 25,400 1,680 Climbing Houston Center
11:40AM 28.5953 -96.4114 60° Northeast 436 502 27,300 1,560 Climbing Houston Center
11:41AM 28.6567 -96.2892 60° Northeast 446 513 28,600 1,260 Climbing Houston Center
11:42AM 28.7183 -96.1667 60° Northeast 449 517 30,000 1,200 Climbing Houston Center
11:43AM 28.7828 -96.0397 60° Northeast 462 532 31,100 1,140 Climbing Houston Center
11:44AM 28.8531 -95.8983 60° Northeast 475 547 32,400 1,020 Climbing Houston Center
11:45AM 28.9208 -95.7653 60° Northeast 485 558 33,300 1,200 Climbing Houston Center
11:46AM 28.9894 -95.6269 60° Northeast 500 575 35,000 1,800 Climbing Houston Center
11:47AM 29.0556 -95.4928 61° Northeast 492 566 37,100 2,100 Climbing Houston Center
11:48AM 29.1325 -95.3353 61° Northeast 479 551 39,400 1,860 Climbing Houston Center
11:49AM 29.1972 -95.2053 60° Northeast 475 547 41,000 720 Climbing Houston Center
11:50AM 29.2625 -95.0703 61° Northeast 489 563 41,000  Level Houston Center
11:51AM 29.3328 -94.9267 61° Northeast 517 595 41,000  Level Houston Center
11:53AM 29.4186 -94.7531 60° Northeast 528 608 41,000  Level Houston Center
11:54AM 29.4897 -94.6067 61° Northeast 530 610 41,000  Level Houston Center
11:55AM 29.5611 -94.4594 61° Northeast 531 611 41,000  Level Houston Center
11:56AM 29.6208 -94.3067 66° East 529 609 41,000  Level Houston Center
11:57AM 29.6453 -94.1331 81° East 527 606 41,000  Level Houston Center
11:58AM 29.6414 -93.9622 91° East 534 615 41,000  Level Houston Center
11:59AM 29.6381 -93.7597 91° East 534 615 41,000  Level Houston Center
12:00PM 29.6350 -93.5922 91° East 529 609 41,000  Level Houston Center
12:01PM 29.6317 -93.4278 91° East 522 601 41,000  Level Houston Center
12:02PM 29.6289 -93.2611 91° East 525 604 41,000  Level Houston Center
12:03PM 29.6261 -93.0958 91° East 523 602 41,000  Level Houston Center
12:04PM 29.6186 -92.8969 92° East 524 603 41,000  Level Houston Center
12:05PM 29.5939 -92.7339 100° East 522 601 41,000  Level Houston Center
12:06PM 29.5686 -92.5703 100° East 521 600 41,000  Level Houston Center
12:07PM 29.5450 -92.4042 99° East 527 606 41,000  Level Houston Center
12:08PM 29.5194 -92.2394 100° East 526 605 41,000  Level Houston Center
12:09PM 29.4881 -92.0414 100° East 527 606 41,000  Level Houston Center
12:10PM 29.4628 -91.8764 100° East 528 608 41,000 -60 Level Houston Center
12:11PM 29.4389 -91.7178 100° East 528 608 40,900  Descending Houston Center
12:12PM 29.4119 -91.5506 100° East 533 613 41,000  Climbing Houston Center
12:13PM 29.3806 -91.3522 100° East 529 609 41,000  Level Houston Center
12:14PM 29.3539 -91.1842 100° East 535 616 41,000  Level Houston Center
12:15PM 29.3267 -91.0186 101° East 533 613 41,000  Level Houston Center
12:16PM 29.2994 -90.8528 101° East 531 611 41,000  Level Houston Center
12:17PM 29.2731 -90.6861 100° East 533 613 41,000  Level Houston Center
12:18PM 29.2392 -90.4869 101° East 534 615 41,000  Level Houston Center
12:19PM 29.2117 -90.3186 101° East 538 619 41,000  Level Houston Center
12:20PM 29.1831 -90.1519 101° East 537 618 41,000  Level Houston Center
12:22PM 29.1503 -89.9847 103° East 540 621 41,000  Level Houston Center
12:23PM 29.1164 -89.8186 103° East 540 621 41,000  Level Houston Center
12:24PM 29.0814 -89.6511 103° East 544 626 41,000  Level Houston Center
12:25PM 29.0400 -89.4500 103° East 546 628 41,000  Level Houston Center
12:26PM 29.0058 -89.2833 103° East 543 625 41,000  Level Houston Center
12:27PM 28.9711 -89.1178 103° East 541 623 41,000  Level Houston Center
12:28PM 28.9364 -88.9503 103° East 545 627 41,000  Level Houston Center
12:29PM 28.9006 -88.7831 104° East 546 628 41,000 -60 Level Houston Center
12:30PM 28.8511 -88.5828 106° East 548 631 40,900  Descending Houston Center
12:31PM 28.8044 -88.4175 108° East 552 635 41,000  Climbing Houston Center
12:32PM 28.7581 -88.2528 108° East 550 633 41,000  Level Houston Center
12:33PM 28.7119 -88.0872 108° East 552 635 41,000  Level Houston Center
12:34PM 28.6581 -87.8942 108° East 549 632 41,000  Level Houston Center
12:35PM 28.6111 -87.7297 108° East 549 632 41,000  Level Houston Center
12:36PM 28.5636 -87.5642 108° East 553 636 41,000  Level Houston Center
12:37PM 28.5164 -87.3994 108° East 553 636 41,000  Level Houston Center
12:38PM 28.4689 -87.2342 108° East 552 635 41,000  Level Houston Center
12:39PM 28.4214 -87.0672 108° East 557 641 41,000  Level Houston Center
12:40PM 28.3900 -86.9672 110° East 561 646 41,000  Level Jacksonville Center
12:41PM 28.3431 -86.8003 108° East 553 636 41,000 -60 Level Jacksonville Center
12:42PM 28.2958 -86.6381 108° East 553 636 40,900 -780 Descending Jacksonville Center
12:43PM 28.2461 -86.4714 109° East 553 636 39,500 -1,200 Descending Jacksonville Center
12:44PM 28.1986 -86.3050 108° East 554 638 38,600 -1,200 Descending Jacksonville Center
12:45PM 28.1486 -86.1383 109° East 554 638 37,100 -1,500 Descending Jacksonville Center
12:46PM 28.1006 -85.9722 108° East 555 639 35,600 -1,080 Descending Jacksonville Center
12:47PM 28.0500 -85.8131 110° East 555 639 35,000 -300 Descending Jacksonville Center
12:48PM 27.9994 -85.6425 109° East 555 639 35,000 -120 Level Jacksonville Center
12:49PM 27.9467 -85.4742 110° East 555 639 34,800 -660 Descending Jacksonville Center
12:51PM 27.8722 -85.1025 103° East 557 641 33,000 -600 Descending Miami Center
12:52PM 27.8703 -84.8747 91° East 562 647 32,800 -600 Descending Miami Center
12:53PM 27.8756 -84.7039 88° East 562 647 31,700 -1,800 Descending Miami Center
12:54PM 27.8806 -84.5378 88° East 548 631 29,200 -2,400 Descending Miami Center
12:55PM 27.8847 -84.3808 88° East 520 598 27,000 -2,220 Descending Miami Center
12:56PM 27.8947 -84.2244 86° East 502 578 24,800 -2,160 Descending Miami Center
12:57PM 27.8964 -84.0719 89° East 492 566 22,700 -2,100 Descending Miami Center
12:58PM 27.8975 -83.9219 89° East 482 555 20,600 -2,040 Descending Miami Center
12:59PM 27.9022 -83.7814 88° East 461 531 18,700 -1,920 Descending Miami Center
01:00PM 27.9044 -83.6478 89° East 442 509 16,800 -1,920 Descending Miami Center
01:01PM 27.9067 -83.5142 89° East 435 501 14,900 -1,860 Descending Miami Center
01:02PM 27.9086 -83.3803 89° East 430 495 13,100 -2,400 Descending Miami Center
01:03PM 27.9142 -83.2564 87° East 413 475 10,100 -2,040 Descending Miami Center
01:04PM 27.9228 -83.1511 85° East 376 433 9,100 -1,500 Descending Miami Center
01:05PM 27.9558 -83.0661 66° East 321 369 7,200 -1,920 Descending Miami Center
01:06PM 27.9886 -82.9833 66° East 295 339 5,300 -1,920 Descending Miami Center
01:07PM 28.0192 -82.9028 67° East 286 329 3,400 -1,440 Descending Miami Center
01:08PM 28.0167 -82.8500 93° East 258 297 3,000 -1,020 Descending Tampa TRACON
01:09PM 28.0333 -82.7667 77° East 245 282 1,700 -600 Descending Tampa TRACON
01:10PM 28.0167 -82.7167 111° Southeast 201 231 1,800 -360 Climbing Tampa TRACON
01:11PM 27.9667 -82.7000 164° South 177 204 1,000 -840 Descending Tampa TRACON
01:13PM 27.9100 -82.6874 180° South  Level Estimated
01:20PM 27.9100 -82.6874 341° North  Level Estimated
01:21PM 27.9100 -82.6874 341° North  Level Estimated